aviador You're here:

KJSO Decoded Metar

JACKSONVILLE in TX, USA
Report Time2017-11-20 05:35:00
UTC Time2017-11-20 05:45:36
Flight Rules vfr VFR
WindCalm
Visibility9999 m
Phenomena:N/A
Clouds:N/A
Expected CloudBase > 3,200 ft AGL from Temp-Dew spread
CeilingNone
Temp08°C (ISA -6)
Dew Point00°C (57% RH)
AAT6.0°C
QNH1025 hPa
Density Alt-322 ft
Elevation676 ft
Report Wrong Elevation
Raw Report
METAR KJSO 200535Z AUTO 00000KT 10SM CLR 08/00 A3026 RMK AO2 T00851005=

Extra information for KJSO:More info

Metar Taf Metar & Taf Last 4 Metars F.Rules Stats Wind Profile Meteogram Temp Stats Airport Information Weather charts Add Link Nearby VenuesMetar ALERT Operation Metar Decoded Social comments

AIRNAV info for KJSO